Ship Status Report: callsign AMOUK29

sailwx.info

Track history (hours):
 
Tides and Currents Weather Stations Pressure Air Temp Water Temp Dewpoint Dewpoint Depression Visibility Wind Speed Wind Dir Waves Ship Positions

Callsign AMOUK29 (name unknown)

Last reported at 2016-Apr-29 19:00 UTC. Time now 2016-Apr-29 21:44 UTC.
Position N 54°36' W 005°54'.

Barometer 1014.6 mb
Air temperature 8.4 ° C
Dewpoint -0.3 ° C

Date/timePositionNaut miles runAvg speedWind from/ knotsBaromVisibWave heightAir tempDewpointWater temp
2016-Apr-29 19:00N 54°36' W 005°54'0 0.0 1014.6 8.4-0.3
2016-Apr-29 18:00N 54°36' W 005°54'0 0.0 1013.9 8.4-1.6
2016-Apr-29 17:00N 54°36' W 005°54'0 0.0 1013.1 10.0-1.6
2016-Apr-29 16:00N 54°36' W 005°54'0 0.0 1012.3 9.7-2.1
2016-Apr-29 15:00N 54°36' W 005°54'0 0.0 1011.8 9.8-3.1
2016-Apr-29 14:00N 54°36' W 005°54'0 0.0 1011.3 9.5-2.7
2016-Apr-29 13:00N 54°36' W 005°54'0 0.0 1010.5 9.3-2.5
2016-Apr-29 10:00N 54°36' W 005°54'0 0.0 1008.5 8.3-1.2
2016-Apr-29 09:00N 54°36' W 005°54'0 0.0 1007.9 7.1 0.8
2016-Apr-29 08:00N 54°36' W 005°54'0 0.0 1007.4 5.2 0.6
2016-Apr-29 07:00N 54°36' W 005°54'0 0.0 1006.6 3.9 1.0
2016-Apr-29 06:00N 54°36' W 005°54'0 0.0 1005.9 2.8 0.6
2016-Apr-29 05:00N 54°36' W 005°54'0 0.0 1005.2 2.5 0.1
2016-Apr-29 04:00N 54°36' W 005°54'0 0.0 1004.8 2.4-0.1
2016-Apr-29 03:00N 54°36' W 005°54'0 0.0 1004.7 2.3-0.7
2016-Apr-29 02:00N 54°36' W 005°54'0 0.0 1004.8 2.6-0.4
2016-Apr-29 01:00N 54°36' W 005°54'0 0.0 1005.1 2.6-0.5
2016-Apr-29 00:00N 54°36' W 005°54'0 0.0 1005.3 3.1-0.3
2016-Apr-28 23:00N 54°36' W 005°54'0 0.0 1005.5 3.3-0.7
2016-Apr-28 21:00N 54°36' W 005°54'0 0.0 1006.1 4.9-1.4
2016-Apr-28 20:00N 54°36' W 005°54'0 0.0 1005.8 5.6-2.9
2016-Apr-28 19:00N 54°36' W 005°54'0 0.0 1005.4 6.5-4.2
2016-Apr-28 18:00N 54°36' W 005°54'0 0.0 1005.3 6.3-3.2
2016-Apr-28 17:00N 54°36' W 005°54'0 0.0 1004.9 7.2-2.3
2016-Apr-28 16:00N 54°36' W 005°54'0 0.0 1004.3 7.4 1.4
2016-Apr-28 11:00N 54°36' W 005°54'0 0.0 1005.1 6.7 3.2
2016-Apr-28 10:00N 54°36' W 005°54'0 0.0 1005.9 4.4 3.1
2016-Apr-28 09:00N 54°36' W 005°54'0 0.0 1007.4 1.7 0.5
2016-Apr-28 08:00N 54°36' W 005°54'0 0.0 1008.4 2.0 0.5
2016-Apr-28 07:00N 54°36' W 005°54'0 0.0 1009.4 2.5 0.3
2016-Apr-28 06:00N 54°36' W 005°54'0 0.0 1010.3 2.4-0.5
2016-Apr-28 03:00N 54°36' W 005°54'0 0.0 1012.5 2.2-0.9
2016-Apr-28 02:00N 54°36' W 005°54'0 0.0 1013.4 3.1-0.9
2016-Apr-28 01:00N 54°36' W 005°54'0 0.0 1014.1 3.7-1.0
2016-Apr-28 00:00N 54°36' W 005°54'0 0.0 1014.5 4.1-1.0
2016-Apr-27 23:00N 54°36' W 005°54'0 0.0 1014.8 4.2-1.7
2016-Apr-27 22:00N 54°36' W 005°54'0 0.0 1015.1 4.4-2.2
2016-Apr-27 20:00N 54°36' W 005°54'0 0.0 1015.4 6.1-2.1
2016-Apr-27 18:00N 54°36' W 005°54'0 0.0 1014.9 8.0-5.1
2016-Apr-27 17:00N 54°36' W 005°54'0 0.0 1014.9 8.0-3.9
2016-Apr-27 16:00N 54°36' W 005°54'0 0.0 1014.7 8.6-5.1
2016-Apr-27 15:00N 54°36' W 005°54'0 0.0 1014.7 8.5-5.3
2016-Apr-27 13:00N 54°36' W 005°54'0 0.0 1014.9 7.4-3.0
2016-Apr-27 10:00N 54°36' W 005°54'0 0.0 1015.4 7.0-3.0
2016-Apr-27 09:00N 54°36' W 005°54'0 0.0 1015.6 6.1-0.9
2016-Apr-27 08:00N 54°36' W 005°54'0 0.0 1015.9 5.5-0.8
2016-Apr-27 07:00N 54°36' W 005°54'0 0.0 1015.9 4.4-1.0
2016-Apr-27 06:00N 54°36' W 005°54'0 0.0 1015.7 2.8-1.9
2016-Apr-27 03:00N 54°36' W 005°54'0 0.0 1015.8 3.9-1.1
2016-Apr-27 02:00N 54°36' W 005°54'0 0.0 1016.0 4.8-0.0
2016-Apr-27 01:00N 54°36' W 005°54'0 0.0 1015.9 4.4-0.9
2016-Apr-27 00:00N 54°36' W 005°54'0 0.0 1016.1 5.7-0.9
2016-Apr-26 23:00N 54°36' W 005°54'0 0.0 1016.0 5.9-0.5
2016-Apr-26 18:00N 54°36' W 005°54'0 0.0 1015.1 8.2-0.8
2016-Apr-26 17:00N 54°36' W 005°54'0 0.0 1014.6 9.2-0.7
2016-Apr-26 16:00N 54°36' W 005°54'0 0.0 1014.2 9.3-1.0
2016-Apr-26 15:00N 54°36' W 005°54'0 0.0 1013.9 9.6-1.2
2016-Apr-26 12:00N 54°36' W 005°54'0 0.0 1013.9 8.5-2.1
2016-Apr-26 10:00N 54°36' W 005°54'0 0.0 1014.1 7.9-2.1
2016-Apr-26 09:00N 54°36' W 005°54'0 0.0 1014.1 7.4-0.6
2016-Apr-26 08:00N 54°36' W 005°54'0 0.0 1014.0 6.8-1.0
2016-Apr-26 06:00N 54°36' W 005°54'0 0.0 1013.8 4.1-1.2
2016-Apr-26 05:00N 54°36' W 005°54'0 0.0 1014.0 3.5-2.1
2016-Apr-26 04:00N 54°36' W 005°54'0 0.0 1013.9 3.4-2.0
2016-Apr-26 03:00N 54°36' W 005°54'0 0.0 1013.8 3.6-3.1
2016-Apr-26 02:00N 54°36' W 005°54'0 0.0 1013.9 4.3-3.1
2016-Apr-26 01:00N 54°36' W 005°54'0 0.0 1014.1 4.1-1.8
2016-Apr-26 00:00N 54°36' W 005°54'0 0.0 1014.5 3.5-1.9
2016-Apr-25 21:00N 54°36' W 005°54'0 0.0 1015.0 5.3-3.8
2016-Apr-25 17:00N 54°36' W 005°54'0 0.0 1014.7 7.9-3.5
2016-Apr-25 16:00N 54°36' W 005°54'0 0.0 1014.3 8.2-4.7
2016-Apr-24 23:00N 54°36' W 005°54'0 0.0 1018.2 7.9 4.7
2016-Apr-24 21:00N 54°36' W 005°54'0 0.0 1019.7 8.9 4.5
2016-Apr-24 16:00N 54°36' W 005°54'0 0.0 1021.1 11.3 2.9
2016-Apr-24 15:00N 54°36' W 005°54'0 0.0 1021.3 11.9 2.2
2016-Apr-23 10:00N 54°36' W 005°54'0 0.0 1025.5 9.6 0.1
2016-Apr-23 07:00N 54°36' W 005°54'0 0.0 1025.4 6.8 2.1
2016-Apr-22 03:00N 54°36' W 005°54'0 0.0 1026.9 8.0 3.3
2016-Apr-22 02:00N 54°36' W 005°54'0 0.0 1027.0 8.3 3.9
2016-Apr-22 01:00N 54°36' W 005°54'0 0.0 1027.2 8.8 4.3
2016-Apr-22 00:00N 54°36' W 005°54'0 0.0 1027.0 9.6 4.2
2016-Apr-21 23:00N 54°36' W 005°54'0 0.0 1026.7 10.2 4.8
2016-Apr-21 20:00N 54°36' W 005°54'0 0.0 1025.2 12.2 4.6
2016-Apr-21 19:00N 54°36' W 005°54'0 0.0 1025.2 12.5 4.1
2016-Apr-21 15:00N 54°36' W 005°54'0 0.0 1026.1 12.9 3.8
2016-Apr-21 13:00N 54°36' W 005°54'0 0.0 1026.6 13.7 4.1
2016-Apr-21 10:00N 54°36' W 005°54'0 0.0 1027.6 11.5 5.3
2016-Apr-21 03:00N 54°36' W 005°54'0 0.0 1028.4 6.5 3.2
2016-Apr-21 02:00N 54°36' W 005°54'0 0.0 1028.3 6.6 2.9
2016-Apr-21 01:00N 54°36' W 005°54'0 0.0 1028.5 6.5 2.8
2016-Apr-21 00:00N 54°36' W 005°54'0 0.0 1028.9 7.6 4.1
2016-Apr-20 23:00N 54°36' W 005°54'0 0.0 1028.9 8.1 4.9
2016-Apr-20 22:00N 54°36' W 005°54'0 0.0 1028.7 8.7 4.5
2016-Apr-20 21:00N 54°36' W 005°54'0 0.0 1029.1 9.5 4.5
2016-Apr-20 20:00N 54°36' W 005°54'0 0.0 1029.1 9.3 4.4
2016-Apr-20 19:00N 54°36' W 005°54'0 0.0 1029.4 10.6 5.5
2016-Apr-20 18:00N 54°36' W 005°54'0 0.0 1030.0 11.3 6.4
2016-Apr-20 16:00N 54°36' W 005°54'0 0.0 1030.3 11.8 2.8
2016-Apr-20 15:00N 54°36' W 005°54'0 0.0 1031.0 11.2 3.2
2016-Apr-20 13:00N 54°36' W 005°54'0 0.0 1031.2 12.6 2.5
2016-Apr-20 11:00N 54°36' W 005°54'0 0.0 1031.7 11.3 4.8
2016-Apr-20 10:00N 54°36' W 005°54'0 0.0 1031.9 10.4 2.9
2016-Apr-20 03:00N 54°36' W 005°54'0 0.0 1031.5 4.7 1.8
2016-Apr-20 02:00N 54°36' W 005°54'0 0.0 1031.6 5.4 1.7
2016-Apr-20 01:00N 54°36' W 005°54'0 0.0 1031.5 5.9 1.8
2016-Apr-20 00:00N 54°36' W 005°54'0 0.0 1031.5 6.5 2.0
2016-Apr-19 23:00N 54°36' W 005°54'0 0.0 1031.1 7.2 2.0
2016-Apr-19 22:00N 54°36' W 005°54'0 0.0 1031.0 8.0 1.7
2016-Apr-19 21:00N 54°36' W 005°54'0 0.0 1030.7 8.3 1.5
2016-Apr-19 20:00N 54°36' W 005°54'   1030.6 9.0 1.3
Track history (hours):
 
Tides and Currents Weather Stations Pressure Air Temp Water Temp Dewpoint Dewpoint Depression Visibility Wind Speed Wind Dir Waves Ship Positions

Callsign AMOUK29 (name unknown)

Last reported at 2016-Apr-29 19:00 UTC. Time now 2016-Apr-29 21:44 UTC.
Position N 54°36' W 005°54'.

Barometer 1014.6 mb
Air temperature 8.4 ° C
Dewpoint -0.3 ° C

Date/timePositionNaut miles runAvg speedWind from/ knotsBaromVisibWave heightAir tempDewpointWater temp
2016-Apr-29 19:00N 54°36' W 005°54'0 0.0 1014.6 8.4-0.3
2016-Apr-29 18:00N 54°36' W 005°54'0 0.0 1013.9 8.4-1.6
2016-Apr-29 17:00N 54°36' W 005°54'0 0.0 1013.1 10.0-1.6
2016-Apr-29 16:00N 54°36' W 005°54'0 0.0 1012.3 9.7-2.1
2016-Apr-29 15:00N 54°36' W 005°54'0 0.0 1011.8 9.8-3.1
2016-Apr-29 14:00N 54°36' W 005°54'0 0.0 1011.3 9.5-2.7
2016-Apr-29 13:00N 54°36' W 005°54'0 0.0 1010.5 9.3-2.5
2016-Apr-29 10:00N 54°36' W 005°54'0 0.0 1008.5 8.3-1.2
2016-Apr-29 09:00N 54°36' W 005°54'0 0.0 1007.9 7.1 0.8
2016-Apr-29 08:00N 54°36' W 005°54'0 0.0 1007.4 5.2 0.6
2016-Apr-29 07:00N 54°36' W 005°54'0 0.0 1006.6 3.9 1.0
2016-Apr-29 06:00N 54°36' W 005°54'0 0.0 1005.9 2.8 0.6
2016-Apr-29 05:00N 54°36' W 005°54'0 0.0 1005.2 2.5 0.1
2016-Apr-29 04:00N 54°36' W 005°54'0 0.0 1004.8 2.4-0.1
2016-Apr-29 03:00N 54°36' W 005°54'0 0.0 1004.7 2.3-0.7
2016-Apr-29 02:00N 54°36' W 005°54'0 0.0 1004.8 2.6-0.4
2016-Apr-29 01:00N 54°36' W 005°54'0 0.0 1005.1 2.6-0.5
2016-Apr-29 00:00N 54°36' W 005°54'0 0.0 1005.3 3.1-0.3
2016-Apr-28 23:00N 54°36' W 005°54'0 0.0 1005.5 3.3-0.7
2016-Apr-28 21:00N 54°36' W 005°54'0 0.0 1006.1 4.9-1.4
2016-Apr-28 20:00N 54°36' W 005°54'0 0.0 1005.8 5.6-2.9
2016-Apr-28 19:00N 54°36' W 005°54'0 0.0 1005.4 6.5-4.2
2016-Apr-28 18:00N 54°36' W 005°54'0 0.0 1005.3 6.3-3.2
2016-Apr-28 17:00N 54°36' W 005°54'0 0.0 1004.9 7.2-2.3
2016-Apr-28 16:00N 54°36' W 005°54'0 0.0 1004.3 7.4 1.4
2016-Apr-28 11:00N 54°36' W 005°54'0 0.0 1005.1 6.7 3.2
2016-Apr-28 10:00N 54°36' W 005°54'0 0.0 1005.9 4.4 3.1
2016-Apr-28 09:00N 54°36' W 005°54'0 0.0 1007.4 1.7 0.5
2016-Apr-28 08:00N 54°36' W 005°54'0 0.0 1008.4 2.0 0.5
2016-Apr-28 07:00N 54°36' W 005°54'0 0.0 1009.4 2.5 0.3
2016-Apr-28 06:00N 54°36' W 005°54'0 0.0 1010.3 2.4-0.5
2016-Apr-28 03:00N 54°36' W 005°54'0 0.0 1012.5 2.2-0.9
2016-Apr-28 02:00N 54°36' W 005°54'0 0.0 1013.4 3.1-0.9
2016-Apr-28 01:00N 54°36' W 005°54'0 0.0 1014.1 3.7-1.0
2016-Apr-28 00:00N 54°36' W 005°54'0 0.0 1014.5 4.1-1.0
2016-Apr-27 23:00N 54°36' W 005°54'0 0.0 1014.8 4.2-1.7
2016-Apr-27 22:00N 54°36' W 005°54'0 0.0 1015.1 4.4-2.2
2016-Apr-27 20:00N 54°36' W 005°54'0 0.0 1015.4 6.1-2.1
2016-Apr-27 18:00N 54°36' W 005°54'0 0.0 1014.9 8.0-5.1
2016-Apr-27 17:00N 54°36' W 005°54'0 0.0 1014.9 8.0-3.9
2016-Apr-27 16:00N 54°36' W 005°54'0 0.0 1014.7 8.6-5.1
2016-Apr-27 15:00N 54°36' W 005°54'0 0.0 1014.7 8.5-5.3
2016-Apr-27 13:00N 54°36' W 005°54'0 0.0 1014.9 7.4-3.0
2016-Apr-27 10:00N 54°36' W 005°54'0 0.0 1015.4 7.0-3.0
2016-Apr-27 09:00N 54°36' W 005°54'0 0.0 1015.6 6.1-0.9
2016-Apr-27 08:00N 54°36' W 005°54'0 0.0 1015.9 5.5-0.8
2016-Apr-27 07:00N 54°36' W 005°54'0 0.0 1015.9 4.4-1.0
2016-Apr-27 06:00N 54°36' W 005°54'0 0.0 1015.7 2.8-1.9
2016-Apr-27 03:00N 54°36' W 005°54'0 0.0 1015.8 3.9-1.1
2016-Apr-27 02:00N 54°36' W 005°54'0 0.0 1016.0 4.8-0.0
2016-Apr-27 01:00N 54°36' W 005°54'0 0.0 1015.9 4.4-0.9
2016-Apr-27 00:00N 54°36' W 005°54'0 0.0 1016.1 5.7-0.9
2016-Apr-26 23:00N 54°36' W 005°54'0 0.0 1016.0 5.9-0.5
2016-Apr-26 18:00N 54°36' W 005°54'0 0.0 1015.1 8.2-0.8
2016-Apr-26 17:00N 54°36' W 005°54'0 0.0 1014.6 9.2-0.7
2016-Apr-26 16:00N 54°36' W 005°54'0 0.0 1014.2 9.3-1.0
2016-Apr-26 15:00N 54°36' W 005°54'0 0.0 1013.9 9.6-1.2
2016-Apr-26 12:00N 54°36' W 005°54'0 0.0 1013.9 8.5-2.1
2016-Apr-26 10:00N 54°36' W 005°54'0 0.0 1014.1 7.9-2.1
2016-Apr-26 09:00N 54°36' W 005°54'0 0.0 1014.1 7.4-0.6
2016-Apr-26 08:00N 54°36' W 005°54'0 0.0 1014.0 6.8-1.0
2016-Apr-26 06:00N 54°36' W 005°54'0 0.0 1013.8 4.1-1.2
2016-Apr-26 05:00N 54°36' W 005°54'0 0.0 1014.0 3.5-2.1
2016-Apr-26 04:00N 54°36' W 005°54'0 0.0 1013.9 3.4-2.0
2016-Apr-26 03:00N 54°36' W 005°54'0 0.0 1013.8 3.6-3.1
2016-Apr-26 02:00N 54°36' W 005°54'0 0.0 1013.9 4.3-3.1
2016-Apr-26 01:00N 54°36' W 005°54'0 0.0 1014.1 4.1-1.8
2016-Apr-26 00:00N 54°36' W 005°54'0 0.0 1014.5 3.5-1.9
2016-Apr-25 21:00N 54°36' W 005°54'0 0.0 1015.0 5.3-3.8
2016-Apr-25 17:00N 54°36' W 005°54'0 0.0 1014.7 7.9-3.5
2016-Apr-25 16:00N 54°36' W 005°54'0 0.0 1014.3 8.2-4.7
2016-Apr-24 23:00N 54°36' W 005°54'0 0.0 1018.2 7.9 4.7
2016-Apr-24 21:00N 54°36' W 005°54'0 0.0 1019.7 8.9 4.5
2016-Apr-24 16:00N 54°36' W 005°54'0 0.0 1021.1 11.3 2.9
2016-Apr-24 15:00N 54°36' W 005°54'0 0.0 1021.3 11.9 2.2
2016-Apr-23 10:00N 54°36' W 005°54'0 0.0 1025.5 9.6 0.1
2016-Apr-23 07:00N 54°36' W 005°54'0 0.0 1025.4 6.8 2.1
2016-Apr-22 03:00N 54°36' W 005°54'0 0.0 1026.9 8.0 3.3
2016-Apr-22 02:00N 54°36' W 005°54'0 0.0 1027.0 8.3 3.9
2016-Apr-22 01:00N 54°36' W 005°54'0 0.0 1027.2 8.8 4.3
2016-Apr-22 00:00N 54°36' W 005°54'0 0.0 1027.0 9.6 4.2
2016-Apr-21 23:00N 54°36' W 005°54'0 0.0 1026.7 10.2 4.8
2016-Apr-21 20:00N 54°36' W 005°54'0 0.0 1025.2 12.2 4.6
2016-Apr-21 19:00N 54°36' W 005°54'0 0.0 1025.2 12.5 4.1
2016-Apr-21 15:00N 54°36' W 005°54'0 0.0 1026.1 12.9 3.8
2016-Apr-21 13:00N 54°36' W 005°54'0 0.0 1026.6 13.7 4.1
2016-Apr-21 10:00N 54°36' W 005°54'0 0.0 1027.6 11.5 5.3
2016-Apr-21 03:00N 54°36' W 005°54'0 0.0 1028.4 6.5 3.2
2016-Apr-21 02:00N 54°36' W 005°54'0 0.0 1028.3 6.6 2.9
2016-Apr-21 01:00N 54°36' W 005°54'0 0.0 1028.5 6.5 2.8
2016-Apr-21 00:00N 54°36' W 005°54'0 0.0 1028.9 7.6 4.1
2016-Apr-20 23:00N 54°36' W 005°54'0 0.0 1028.9 8.1 4.9
2016-Apr-20 22:00N 54°36' W 005°54'0 0.0 1028.7 8.7 4.5
2016-Apr-20 21:00N 54°36' W 005°54'0 0.0 1029.1 9.5 4.5
2016-Apr-20 20:00N 54°36' W 005°54'0 0.0 1029.1 9.3 4.4
2016-Apr-20 19:00N 54°36' W 005°54'0 0.0 1029.4 10.6 5.5
2016-Apr-20 18:00N 54°36' W 005°54'0 0.0 1030.0 11.3 6.4
2016-Apr-20 16:00N 54°36' W 005°54'0 0.0 1030.3 11.8 2.8
2016-Apr-20 15:00N 54°36' W 005°54'0 0.0 1031.0 11.2 3.2
2016-Apr-20 13:00N 54°36' W 005°54'0 0.0 1031.2 12.6 2.5
2016-Apr-20 11:00N 54°36' W 005°54'0 0.0 1031.7 11.3 4.8
2016-Apr-20 10:00N 54°36' W 005°54'0 0.0 1031.9 10.4 2.9
2016-Apr-20 03:00N 54°36' W 005°54'0 0.0 1031.5 4.7 1.8
2016-Apr-20 02:00N 54°36' W 005°54'0 0.0 1031.6 5.4 1.7
2016-Apr-20 01:00N 54°36' W 005°54'0 0.0 1031.5 5.9 1.8
2016-Apr-20 00:00N 54°36' W 005°54'0 0.0 1031.5 6.5 2.0
2016-Apr-19 23:00N 54°36' W 005°54'0 0.0 1031.1 7.2 2.0
2016-Apr-19 22:00N 54°36' W 005°54'0 0.0 1031.0 8.0 1.7
2016-Apr-19 21:00N 54°36' W 005°54'0 0.0 1030.7 8.3 1.5
2016-Apr-19 20:00N 54°36' W 005°54'   1030.6 9.0 1.3

Dump ship's entire track history